sensor_id;sensor_type;location;lat;lon;timestamp;P1;durP1;ratioP1;P2;durP2;ratioP2
10586;SDS011;5341;47.606;7.576;2023-03-17T00:01:19;5.20;;;4.45;;
10586;SDS011;5341;47.606;7.576;2023-03-17T00:03:47;7.63;;;4.43;;
10586;SDS011;5341;47.606;7.576;2023-03-17T00:06:17;6.65;;;4.95;;
10586;SDS011;5341;47.606;7.576;2023-03-17T00:08:49;7.07;;;4.60;;
10586;SDS011;5341;47.606;7.576;2023-03-17T00:11:16;6.90;;;5.20;;
10586;SDS011;5341;47.606;7.576;2023-03-17T00:13:45;8.02;;;6.15;;
10586;SDS011;5341;47.606;7.576;2023-03-17T00:16:14;6.68;;;5.10;;
10586;SDS011;5341;47.606;7.576;2023-03-17T00:18:44;5.40;;;4.43;;
10586;SDS011;5341;47.606;7.576;2023-03-17T00:21:13;6.18;;;4.80;;
10586;SDS011;5341;47.606;7.576;2023-03-17T00:23:42;7.85;;;4.20;;
10586;SDS011;5341;47.606;7.576;2023-03-17T00:26:15;8.07;;;5.63;;
10586;SDS011;5341;47.606;7.576;2023-03-17T00:28:42;6.28;;;4.50;;
10586;SDS011;5341;47.606;7.576;2023-03-17T00:31:11;5.15;;;3.85;;
10586;SDS011;5341;47.606;7.576;2023-03-17T00:33:42;4.80;;;3.97;;
10586;SDS011;5341;47.606;7.576;2023-03-17T00:36:12;4.95;;;3.75;;
10586;SDS011;5341;47.606;7.576;2023-03-17T00:38:43;5.38;;;4.57;;
10586;SDS011;5341;47.606;7.576;2023-03-17T00:41:11;5.93;;;5.03;;
10586;SDS011;5341;47.606;7.576;2023-03-17T00:43:39;4.60;;;3.90;;
10586;SDS011;5341;47.606;7.576;2023-03-17T00:46:09;5.25;;;4.03;;
10586;SDS011;5341;47.606;7.576;2023-03-17T00:48:41;5.78;;;4.90;;
10586;SDS011;5341;47.606;7.576;2023-03-17T00:51:10;4.88;;;3.97;;
10586;SDS011;5341;47.606;7.576;2023-03-17T00:53:38;6.28;;;4.55;;
10586;SDS011;5341;47.606;7.576;2023-03-17T00:56:08;5.72;;;4.43;;
10586;SDS011;5341;47.606;7.576;2023-03-17T00:58:39;5.45;;;4.22;;
10586;SDS011;5341;47.606;7.576;2023-03-17T01:01:07;5.68;;;4.25;;
10586;SDS011;5341;47.606;7.576;2023-03-17T01:03:36;4.80;;;4.10;;
10586;SDS011;5341;47.606;7.576;2023-03-17T01:06:05;6.47;;;3.97;;
10586;SDS011;5341;47.606;7.576;2023-03-17T01:08:35;5.00;;;4.40;;
10586;SDS011;5341;47.606;7.576;2023-03-17T01:11:06;5.30;;;4.15;;
10586;SDS011;5341;47.606;7.576;2023-03-17T01:13:40;5.35;;;4.20;;
10586;SDS011;5341;47.606;7.576;2023-03-17T01:16:08;6.15;;;4.07;;
10586;SDS011;5341;47.606;7.576;2023-03-17T01:18:38;5.20;;;4.03;;
10586;SDS011;5341;47.606;7.576;2023-03-17T01:21:05;5.82;;;4.30;;
10586;SDS011;5341;47.606;7.576;2023-03-17T01:23:33;4.30;;;3.38;;
10586;SDS011;5341;47.606;7.576;2023-03-17T01:26:00;4.07;;;3.40;;
10586;SDS011;5341;47.606;7.576;2023-03-17T01:28:28;4.90;;;4.40;;
10586;SDS011;5341;47.606;7.576;2023-03-17T01:30:55;7.13;;;3.80;;
10586;SDS011;5341;47.606;7.576;2023-03-17T01:33:23;4.13;;;3.60;;
10586;SDS011;5341;47.606;7.576;2023-03-17T01:35:52;4.43;;;3.53;;
10586;SDS011;5341;47.606;7.576;2023-03-17T01:38:19;3.55;;;3.25;;
10586;SDS011;5341;47.606;7.576;2023-03-17T01:40:47;6.53;;;3.92;;
10586;SDS011;5341;47.606;7.576;2023-03-17T01:43:17;4.03;;;3.63;;
10586;SDS011;5341;47.606;7.576;2023-03-17T01:48:52;6.18;;;4.10;;
10586;SDS011;5341;47.606;7.576;2023-03-17T01:51:31;4.47;;;3.20;;
10586;SDS011;5341;47.606;7.576;2023-03-17T01:54:03;3.53;;;3.22;;
10586;SDS011;5341;47.606;7.576;2023-03-17T01:56:35;4.53;;;3.67;;
10586;SDS011;5341;47.606;7.576;2023-03-17T01:59:05;3.80;;;3.40;;
10586;SDS011;5341;47.606;7.576;2023-03-17T02:01:35;4.32;;;3.50;;
10586;SDS011;5341;47.606;7.576;2023-03-17T02:04:04;4.85;;;4.00;;
10586;SDS011;5341;47.606;7.576;2023-03-17T02:06:35;4.10;;;3.28;;
10586;SDS011;5341;47.606;7.576;2023-03-17T02:09:02;5.13;;;3.47;;
10586;SDS011;5341;47.606;7.576;2023-03-17T02:11:30;4.03;;;3.28;;
10586;SDS011;5341;47.606;7.576;2023-03-17T02:13:59;3.85;;;3.45;;
10586;SDS011;5341;47.606;7.576;2023-03-17T02:16:27;7.32;;;3.88;;
10586;SDS011;5341;47.606;7.576;2023-03-17T02:18:56;4.28;;;3.58;;
10586;SDS011;5341;47.606;7.576;2023-03-17T02:21:28;4.40;;;3.65;;
10586;SDS011;5341;47.606;7.576;2023-03-17T02:24:08;3.83;;;3.08;;
10586;SDS011;5341;47.606;7.576;2023-03-17T02:26:42;3.63;;;3.10;;
10586;SDS011;5341;47.606;7.576;2023-03-17T02:29:11;4.05;;;3.35;;
10586;SDS011;5341;47.606;7.576;2023-03-17T02:31:39;5.22;;;3.20;;
10586;SDS011;5341;47.606;7.576;2023-03-17T02:34:07;4.68;;;3.33;;
10586;SDS011;5341;47.606;7.576;2023-03-17T02:36:35;4.40;;;2.95;;
10586;SDS011;5341;47.606;7.576;2023-03-17T02:39:03;5.18;;;3.28;;
10586;SDS011;5341;47.606;7.576;2023-03-17T02:41:31;4.00;;;3.25;;
10586;SDS011;5341;47.606;7.576;2023-03-17T02:43:58;4.35;;;3.33;;
10586;SDS011;5341;47.606;7.576;2023-03-17T02:46:26;3.65;;;3.05;;
10586;SDS011;5341;47.606;7.576;2023-03-17T02:48:57;4.03;;;3.20;;
10586;SDS011;5341;47.606;7.576;2023-03-17T02:51:25;3.47;;;3.03;;
10586;SDS011;5341;47.606;7.576;2023-03-17T02:53:53;5.30;;;3.63;;
10586;SDS011;5341;47.606;7.576;2023-03-17T02:56:21;4.38;;;3.40;;
10586;SDS011;5341;47.606;7.576;2023-03-17T02:58:53;4.05;;;2.90;;
10586;SDS011;5341;47.606;7.576;2023-03-17T03:01:20;4.07;;;3.00;;
10586;SDS011;5341;47.606;7.576;2023-03-17T03:03:51;3.72;;;3.17;;
10586;SDS011;5341;47.606;7.576;2023-03-17T03:06:19;3.70;;;3.30;;
10586;SDS011;5341;47.606;7.576;2023-03-17T03:08:50;4.05;;;3.22;;
10586;SDS011;5341;47.606;7.576;2023-03-17T03:11:21;4.13;;;3.30;;
10586;SDS011;5341;47.606;7.576;2023-03-17T03:13:49;5.15;;;3.20;;
10586;SDS011;5341;47.606;7.576;2023-03-17T03:16:16;5.30;;;3.33;;
10586;SDS011;5341;47.606;7.576;2023-03-17T03:18:43;4.15;;;3.20;;
10586;SDS011;5341;47.606;7.576;2023-03-17T03:21:10;5.03;;;3.60;;
10586;SDS011;5341;47.606;7.576;2023-03-17T03:23:38;5.20;;;3.25;;
10586;SDS011;5341;47.606;7.576;2023-03-17T03:26:05;5.28;;;3.00;;
10586;SDS011;5341;47.606;7.576;2023-03-17T03:28:35;3.40;;;3.10;;
10586;SDS011;5341;47.606;7.576;2023-03-17T03:31:02;5.63;;;3.40;;
10586;SDS011;5341;47.606;7.576;2023-03-17T03:33:29;4.03;;;3.35;;
10586;SDS011;5341;47.606;7.576;2023-03-17T03:35:58;3.78;;;3.17;;
10586;SDS011;5341;47.606;7.576;2023-03-17T03:38:25;4.75;;;3.38;;
10586;SDS011;5341;47.606;7.576;2023-03-17T03:40:53;3.58;;;3.22;;
10586;SDS011;5341;47.606;7.576;2023-03-17T03:43:20;3.83;;;3.42;;
10586;SDS011;5341;47.606;7.576;2023-03-17T03:45:49;6.07;;;3.28;;
10586;SDS011;5341;47.606;7.576;2023-03-17T03:48:17;3.35;;;2.90;;
10586;SDS011;5341;47.606;7.576;2023-03-17T03:50:48;3.88;;;3.40;;
10586;SDS011;5341;47.606;7.576;2023-03-17T03:53:15;3.90;;;3.28;;
10586;SDS011;5341;47.606;7.576;2023-03-17T03:55:43;6.57;;;3.38;;
10586;SDS011;5341;47.606;7.576;2023-03-17T03:58:17;3.55;;;3.15;;
10586;SDS011;5341;47.606;7.576;2023-03-17T04:00:44;3.97;;;3.30;;
10586;SDS011;5341;47.606;7.576;2023-03-17T04:03:16;3.60;;;3.30;;
10586;SDS011;5341;47.606;7.576;2023-03-17T04:05:44;4.53;;;3.22;;
10586;SDS011;5341;47.606;7.576;2023-03-17T04:08:12;3.88;;;3.13;;
10586;SDS011;5341;47.606;7.576;2023-03-17T04:10:40;5.72;;;3.50;;
10586;SDS011;5341;47.606;7.576;2023-03-17T04:13:08;4.35;;;3.20;;
10586;SDS011;5341;47.606;7.576;2023-03-17T04:15:35;4.88;;;3.42;;
10586;SDS011;5341;47.606;7.576;2023-03-17T04:18:02;7.97;;;3.20;;
10586;SDS011;5341;47.606;7.576;2023-03-17T04:20:31;5.78;;;3.35;;
10586;SDS011;5341;47.606;7.576;2023-03-17T04:22:58;3.88;;;2.97;;
10586;SDS011;5341;47.606;7.576;2023-03-17T04:25:26;4.00;;;3.25;;
10586;SDS011;5341;47.606;7.576;2023-03-17T04:27:53;3.53;;;3.20;;
10586;SDS011;5341;47.606;7.576;2023-03-17T04:30:20;3.28;;;2.88;;
10586;SDS011;5341;47.606;7.576;2023-03-17T04:32:47;5.88;;;3.25;;
10586;SDS011;5341;47.606;7.576;2023-03-17T04:35:16;4.07;;;3.22;;
10586;SDS011;5341;47.606;7.576;2023-03-17T04:37:47;4.45;;;3.53;;
10586;SDS011;5341;47.606;7.576;2023-03-17T04:40:15;4.65;;;3.42;;
10586;SDS011;5341;47.606;7.576;2023-03-17T04:42:43;3.67;;;3.22;;
10586;SDS011;5341;47.606;7.576;2023-03-17T04:45:11;3.45;;;2.90;;
10586;SDS011;5341;47.606;7.576;2023-03-17T04:47:41;3.85;;;2.95;;
10586;SDS011;5341;47.606;7.576;2023-03-17T04:50:10;5.03;;;3.55;;
10586;SDS011;5341;47.606;7.576;2023-03-17T04:52:38;5.03;;;3.60;;
10586;SDS011;5341;47.606;7.576;2023-03-17T04:55:08;4.40;;;3.38;;
10586;SDS011;5341;47.606;7.576;2023-03-17T04:57:36;4.00;;;3.17;;
10586;SDS011;5341;47.606;7.576;2023-03-17T05:00:04;3.78;;;3.33;;
10586;SDS011;5341;47.606;7.576;2023-03-17T05:02:32;4.05;;;3.13;;
10586;SDS011;5341;47.606;7.576;2023-03-17T05:05:00;6.78;;;3.85;;
10586;SDS011;5341;47.606;7.576;2023-03-17T05:07:27;4.97;;;4.15;;
10586;SDS011;5341;47.606;7.576;2023-03-17T05:09:54;8.63;;;5.80;;
10586;SDS011;5341;47.606;7.576;2023-03-17T05:12:24;10.13;;;6.10;;
10586;SDS011;5341;47.606;7.576;2023-03-17T05:14:51;8.52;;;6.20;;
10586;SDS011;5341;47.606;7.576;2023-03-17T05:17:18;8.32;;;5.45;;
10586;SDS011;5341;47.606;7.576;2023-03-17T05:19:46;7.88;;;5.95;;
10586;SDS011;5341;47.606;7.576;2023-03-17T05:22:13;9.73;;;6.90;;
10586;SDS011;5341;47.606;7.576;2023-03-17T05:24:40;8.65;;;6.10;;
10586;SDS011;5341;47.606;7.576;2023-03-17T05:27:08;11.30;;;6.05;;
10586;SDS011;5341;47.606;7.576;2023-03-17T05:29:37;8.73;;;5.90;;
10586;SDS011;5341;47.606;7.576;2023-03-17T05:32:06;7.88;;;5.70;;
10586;SDS011;5341;47.606;7.576;2023-03-17T05:34:37;6.78;;;5.05;;
10586;SDS011;5341;47.606;7.576;2023-03-17T05:37:05;7.68;;;4.95;;
10586;SDS011;5341;47.606;7.576;2023-03-17T05:39:33;5.65;;;4.75;;
10586;SDS011;5341;47.606;7.576;2023-03-17T05:42:00;8.05;;;4.68;;
10586;SDS011;5341;47.606;7.576;2023-03-17T05:44:28;7.68;;;4.80;;
10586;SDS011;5341;47.606;7.576;2023-03-17T05:46:57;7.93;;;5.40;;
10586;SDS011;5341;47.606;7.576;2023-03-17T05:49:25;6.47;;;4.70;;
10586;SDS011;5341;47.606;7.576;2023-03-17T05:51:53;8.07;;;5.15;;
10586;SDS011;5341;47.606;7.576;2023-03-17T05:54:20;6.10;;;4.38;;
10586;SDS011;5341;47.606;7.576;2023-03-17T05:56:56;5.88;;;4.68;;
10586;SDS011;5341;47.606;7.576;2023-03-17T05:59:36;6.93;;;4.53;;
10586;SDS011;5341;47.606;7.576;2023-03-17T06:02:05;6.78;;;4.65;;
10586;SDS011;5341;47.606;7.576;2023-03-17T06:04:33;12.23;;;4.88;;
10586;SDS011;5341;47.606;7.576;2023-03-17T06:07:00;5.55;;;4.25;;
10586;SDS011;5341;47.606;7.576;2023-03-17T06:09:27;10.35;;;4.72;;
10586;SDS011;5341;47.606;7.576;2023-03-17T06:11:55;6.13;;;4.70;;
10586;SDS011;5341;47.606;7.576;2023-03-17T06:14:23;7.35;;;5.18;;
10586;SDS011;5341;47.606;7.576;2023-03-17T06:16:53;9.35;;;5.20;;
10586;SDS011;5341;47.606;7.576;2023-03-17T06:19:22;7.05;;;4.65;;
10586;SDS011;5341;47.606;7.576;2023-03-17T06:21:50;6.22;;;5.03;;
10586;SDS011;5341;47.606;7.576;2023-03-17T06:24:18;7.88;;;4.68;;
10586;SDS011;5341;47.606;7.576;2023-03-17T06:26:46;5.63;;;4.55;;
10586;SDS011;5341;47.606;7.576;2023-03-17T06:29:13;5.97;;;4.97;;
10586;SDS011;5341;47.606;7.576;2023-03-17T06:31:41;6.22;;;4.95;;
10586;SDS011;5341;47.606;7.576;2023-03-17T06:34:14;6.07;;;4.78;;
10586;SDS011;5341;47.606;7.576;2023-03-17T06:36:44;7.60;;;4.30;;
10586;SDS011;5341;47.606;7.576;2023-03-17T06:39:11;6.50;;;4.40;;
10586;SDS011;5341;47.606;7.576;2023-03-17T06:41:40;6.50;;;4.30;;
10586;SDS011;5341;47.606;7.576;2023-03-17T06:44:09;5.65;;;4.32;;
10586;SDS011;5341;47.606;7.576;2023-03-17T06:46:37;8.73;;;4.95;;
10586;SDS011;5341;47.606;7.576;2023-03-17T06:49:05;6.10;;;4.50;;
10586;SDS011;5341;47.606;7.576;2023-03-17T06:51:37;7.25;;;5.05;;
10586;SDS011;5341;47.606;7.576;2023-03-17T06:54:08;6.45;;;4.88;;
10586;SDS011;5341;47.606;7.576;2023-03-17T06:56:37;6.55;;;5.10;;
10586;SDS011;5341;47.606;7.576;2023-03-17T06:59:08;6.55;;;4.80;;
10586;SDS011;5341;47.606;7.576;2023-03-17T07:01:36;8.68;;;5.60;;
10586;SDS011;5341;47.606;7.576;2023-03-17T07:04:06;8.48;;;6.40;;
10586;SDS011;5341;47.606;7.576;2023-03-17T07:06:39;8.10;;;5.63;;
10586;SDS011;5341;47.606;7.576;2023-03-17T07:09:10;7.68;;;5.43;;
10586;SDS011;5341;47.606;7.576;2023-03-17T07:11:38;7.78;;;5.25;;
10586;SDS011;5341;47.606;7.576;2023-03-17T07:14:06;8.52;;;5.03;;
10586;SDS011;5341;47.606;7.576;2023-03-17T07:16:35;5.72;;;4.90;;
10586;SDS011;5341;47.606;7.576;2023-03-17T07:19:05;7.53;;;5.35;;
10586;SDS011;5341;47.606;7.576;2023-03-17T07:21:37;8.23;;;5.90;;
10586;SDS011;5341;47.606;7.576;2023-03-17T07:24:05;10.02;;;5.85;;
10586;SDS011;5341;47.606;7.576;2023-03-17T07:26:40;8.00;;;5.47;;
10586;SDS011;5341;47.606;7.576;2023-03-17T07:29:07;6.15;;;4.97;;
10586;SDS011;5341;47.606;7.576;2023-03-17T07:31:36;5.60;;;4.55;;
10586;SDS011;5341;47.606;7.576;2023-03-17T07:34:04;7.35;;;5.68;;
10586;SDS011;5341;47.606;7.576;2023-03-17T07:36:32;7.20;;;5.30;;
10586;SDS011;5341;47.606;7.576;2023-03-17T07:39:00;8.40;;;5.20;;
10586;SDS011;5341;47.606;7.576;2023-03-17T07:41:32;8.05;;;5.43;;
10586;SDS011;5341;47.606;7.576;2023-03-17T07:44:01;6.50;;;4.60;;
10586;SDS011;5341;47.606;7.576;2023-03-17T07:46:29;9.40;;;4.80;;
10586;SDS011;5341;47.606;7.576;2023-03-17T07:48:56;10.13;;;4.90;;
10586;SDS011;5341;47.606;7.576;2023-03-17T07:51:24;6.18;;;4.50;;
10586;SDS011;5341;47.606;7.576;2023-03-17T07:53:52;9.60;;;4.68;;
10586;SDS011;5341;47.606;7.576;2023-03-17T07:56:32;7.65;;;4.90;;
10586;SDS011;5341;47.606;7.576;2023-03-17T07:59:07;8.10;;;5.35;;
10586;SDS011;5341;47.606;7.576;2023-03-17T08:01:35;6.32;;;4.65;;
10586;SDS011;5341;47.606;7.576;2023-03-17T08:04:02;8.70;;;5.28;;
10586;SDS011;5341;47.606;7.576;2023-03-17T08:06:31;6.10;;;5.22;;
10586;SDS011;5341;47.606;7.576;2023-03-17T08:08:59;9.60;;;5.38;;
10586;SDS011;5341;47.606;7.576;2023-03-17T08:11:26;8.98;;;4.47;;
10586;SDS011;5341;47.606;7.576;2023-03-17T08:13:55;6.90;;;4.82;;
10586;SDS011;5341;47.606;7.576;2023-03-17T08:16:22;6.30;;;4.60;;
10586;SDS011;5341;47.606;7.576;2023-03-17T08:18:49;7.32;;;4.85;;
10586;SDS011;5341;47.606;7.576;2023-03-17T08:21:16;5.88;;;4.35;;
10586;SDS011;5341;47.606;7.576;2023-03-17T08:23:45;5.47;;;4.72;;
10586;SDS011;5341;47.606;7.576;2023-03-17T08:26:12;5.70;;;4.43;;
10586;SDS011;5341;47.606;7.576;2023-03-17T08:28:40;6.75;;;4.45;;
10586;SDS011;5341;47.606;7.576;2023-03-17T08:31:10;6.32;;;4.25;;
10586;SDS011;5341;47.606;7.576;2023-03-17T08:33:39;6.07;;;4.35;;
10586;SDS011;5341;47.606;7.576;2023-03-17T08:36:07;6.15;;;4.22;;
10586;SDS011;5341;47.606;7.576;2023-03-17T08:38:35;5.25;;;4.20;;
10586;SDS011;5341;47.606;7.576;2023-03-17T08:41:04;5.05;;;4.00;;
10586;SDS011;5341;47.606;7.576;2023-03-17T08:43:32;5.78;;;4.60;;
10586;SDS011;5341;47.606;7.576;2023-03-17T08:46:02;7.22;;;4.38;;
10586;SDS011;5341;47.606;7.576;2023-03-17T08:48:34;7.70;;;4.53;;
10586;SDS011;5341;47.606;7.576;2023-03-17T08:51:02;5.93;;;4.47;;
10586;SDS011;5341;47.606;7.576;2023-03-17T08:53:30;5.05;;;4.10;;
10586;SDS011;5341;47.606;7.576;2023-03-17T08:56:10;4.97;;;4.20;;
10586;SDS011;5341;47.606;7.576;2023-03-17T08:58:44;7.20;;;4.22;;
10586;SDS011;5341;47.606;7.576;2023-03-17T09:01:12;5.72;;;4.13;;
10586;SDS011;5341;47.606;7.576;2023-03-17T09:03:41;7.55;;;4.22;;
10586;SDS011;5341;47.606;7.576;2023-03-17T09:06:10;6.20;;;4.32;;
10586;SDS011;5341;47.606;7.576;2023-03-17T09:08:38;6.05;;;4.22;;
10586;SDS011;5341;47.606;7.576;2023-03-17T09:11:09;8.60;;;4.57;;
10586;SDS011;5341;47.606;7.576;2023-03-17T09:13:39;7.47;;;4.45;;
10586;SDS011;5341;47.606;7.576;2023-03-17T09:16:06;7.72;;;4.22;;
10586;SDS011;5341;47.606;7.576;2023-03-17T09:18:34;7.43;;;4.25;;
10586;SDS011;5341;47.606;7.576;2023-03-17T09:21:03;5.93;;;4.40;;
10586;SDS011;5341;47.606;7.576;2023-03-17T09:23:30;5.15;;;3.97;;
10586;SDS011;5341;47.606;7.576;2023-03-17T09:25:58;7.05;;;3.80;;
10586;SDS011;5341;47.606;7.576;2023-03-17T09:28:25;6.05;;;4.05;;
10586;SDS011;5341;47.606;7.576;2023-03-17T09:30:56;6.00;;;4.03;;
10586;SDS011;5341;47.606;7.576;2023-03-17T09:33:27;4.70;;;3.80;;
10586;SDS011;5341;47.606;7.576;2023-03-17T09:35:55;5.40;;;4.00;;
10586;SDS011;5341;47.606;7.576;2023-03-17T09:38:24;5.20;;;3.60;;
10586;SDS011;5341;47.606;7.576;2023-03-17T09:40:54;9.68;;;4.47;;
10586;SDS011;5341;47.606;7.576;2023-03-17T09:43:25;5.38;;;3.85;;
10586;SDS011;5341;47.606;7.576;2023-03-17T09:46:04;6.47;;;4.28;;
10586;SDS011;5341;47.606;7.576;2023-03-17T09:48:44;6.00;;;4.00;;
10586;SDS011;5341;47.606;7.576;2023-03-17T09:51:19;6.35;;;4.60;;
10586;SDS011;5341;47.606;7.576;2023-03-17T09:53:50;5.85;;;4.07;;
10586;SDS011;5341;47.606;7.576;2023-03-17T09:56:24;9.32;;;5.20;;
10586;SDS011;5341;47.606;7.576;2023-03-17T09:58:55;8.63;;;5.03;;
10586;SDS011;5341;47.606;7.576;2023-03-17T10:01:24;9.70;;;5.60;;
10586;SDS011;5341;47.606;7.576;2023-03-17T10:03:52;11.15;;;6.15;;
10586;SDS011;5341;47.606;7.576;2023-03-17T10:06:23;7.65;;;5.60;;
10586;SDS011;5341;47.606;7.576;2023-03-17T10:09:01;8.77;;;5.97;;
10586;SDS011;5341;47.606;7.576;2023-03-17T10:11:36;9.88;;;5.65;;
10586;SDS011;5341;47.606;7.576;2023-03-17T10:14:08;8.20;;;5.10;;
10586;SDS011;5341;47.606;7.576;2023-03-17T10:16:55;7.32;;;4.57;;
10586;SDS011;5341;47.606;7.576;2023-03-17T10:19:27;5.10;;;4.25;;
10586;SDS011;5341;47.606;7.576;2023-03-17T10:21:59;9.73;;;4.00;;
10586;SDS011;5341;47.606;7.576;2023-03-17T10:24:31;6.53;;;4.30;;
10586;SDS011;5341;47.606;7.576;2023-03-17T10:27:00;7.55;;;3.88;;
10586;SDS011;5341;47.606;7.576;2023-03-17T10:29:31;6.38;;;4.05;;
10586;SDS011;5341;47.606;7.576;2023-03-17T10:31:58;8.27;;;3.95;;
10586;SDS011;5341;47.606;7.576;2023-03-17T10:34:26;5.50;;;4.05;;
10586;SDS011;5341;47.606;7.576;2023-03-17T10:36:59;6.32;;;3.70;;
10586;SDS011;5341;47.606;7.576;2023-03-17T10:39:31;7.63;;;4.05;;
10586;SDS011;5341;47.606;7.576;2023-03-17T10:42:09;7.95;;;3.72;;
10586;SDS011;5341;47.606;7.576;2023-03-17T10:44:41;5.07;;;3.60;;
10586;SDS011;5341;47.606;7.576;2023-03-17T10:47:22;5.72;;;3.75;;
10586;SDS011;5341;47.606;7.576;2023-03-17T10:49:53;4.63;;;3.60;;
10586;SDS011;5341;47.606;7.576;2023-03-17T10:52:23;8.32;;;3.55;;
10586;SDS011;5341;47.606;7.576;2023-03-17T10:54:54;4.68;;;3.60;;
10586;SDS011;5341;47.606;7.576;2023-03-17T10:57:28;5.43;;;3.92;;
10586;SDS011;5341;47.606;7.576;2023-03-17T10:59:55;4.93;;;3.45;;
10586;SDS011;5341;47.606;7.576;2023-03-17T11:02:26;5.25;;;3.30;;
10586;SDS011;5341;47.606;7.576;2023-03-17T11:04:59;5.40;;;3.75;;
10586;SDS011;5341;47.606;7.576;2023-03-17T11:07:33;5.43;;;3.08;;
10586;SDS011;5341;47.606;7.576;2023-03-17T11:10:18;5.65;;;3.45;;
10586;SDS011;5341;47.606;7.576;2023-03-17T11:12:48;8.88;;;3.90;;
10586;SDS011;5341;47.606;7.576;2023-03-17T11:15:23;6.05;;;3.60;;
10586;SDS011;5341;47.606;7.576;2023-03-17T11:17:58;7.55;;;3.38;;
10586;SDS011;5341;47.606;7.576;2023-03-17T11:20:37;5.50;;;3.50;;
10586;SDS011;5341;47.606;7.576;2023-03-17T11:23:12;6.97;;;3.60;;
10586;SDS011;5341;47.606;7.576;2023-03-17T11:26:05;5.28;;;3.38;;
10586;SDS011;5341;47.606;7.576;2023-03-17T11:28:43;4.30;;;3.63;;
10586;SDS011;5341;47.606;7.576;2023-03-17T11:31:16;5.18;;;3.53;;
10586;SDS011;5341;47.606;7.576;2023-03-17T11:33:51;7.28;;;4.50;;
10586;SDS011;5341;47.606;7.576;2023-03-17T11:36:30;5.10;;;3.97;;
10586;SDS011;5341;47.606;7.576;2023-03-17T11:39:09;6.25;;;4.70;;
10586;SDS011;5341;47.606;7.576;2023-03-17T11:47:44;5.43;;;4.30;;
10586;SDS011;5341;47.606;7.576;2023-03-17T11:50:35;5.82;;;3.67;;
10586;SDS011;5341;47.606;7.576;2023-03-17T11:53:17;5.38;;;3.67;;
10586;SDS011;5341;47.606;7.576;2023-03-17T11:55:56;4.72;;;3.67;;
10586;SDS011;5341;47.606;7.576;2023-03-17T11:58:30;4.82;;;3.67;;
10586;SDS011;5341;47.606;7.576;2023-03-17T12:01:01;6.65;;;3.05;;
10586;SDS011;5341;47.606;7.576;2023-03-17T12:03:35;5.70;;;3.10;;
10586;SDS011;5341;47.606;7.576;2023-03-17T12:06:12;4.55;;;3.30;;
10586;SDS011;5341;47.606;7.576;2023-03-17T12:08:45;4.75;;;3.35;;
10586;SDS011;5341;47.606;7.576;2023-03-17T12:11:18;5.00;;;3.15;;
10586;SDS011;5341;47.606;7.576;2023-03-17T12:13:52;3.63;;;2.75;;
10586;SDS011;5341;47.606;7.576;2023-03-17T12:16:25;4.22;;;2.90;;
10586;SDS011;5341;47.606;7.576;2023-03-17T12:18:59;4.68;;;2.80;;
10586;SDS011;5341;47.606;7.576;2023-03-17T12:21:34;4.75;;;2.97;;
10586;SDS011;5341;47.606;7.576;2023-03-17T12:24:08;3.58;;;2.83;;
10586;SDS011;5341;47.606;7.576;2023-03-17T12:26:42;4.50;;;2.75;;
10586;SDS011;5341;47.606;7.576;2023-03-17T12:29:22;3.60;;;2.53;;
10586;SDS011;5341;47.606;7.576;2023-03-17T12:32:09;4.30;;;2.72;;
10586;SDS011;5341;47.606;7.576;2023-03-17T12:34:45;5.07;;;2.63;;
10586;SDS011;5341;47.606;7.576;2023-03-17T12:37:18;3.38;;;2.63;;
10586;SDS011;5341;47.606;7.576;2023-03-17T12:39:46;3.70;;;2.60;;
10586;SDS011;5341;47.606;7.576;2023-03-17T12:42:23;3.85;;;2.85;;
10586;SDS011;5341;47.606;7.576;2023-03-17T12:48:15;3.72;;;2.58;;
10586;SDS011;5341;47.606;7.576;2023-03-17T12:51:04;4.30;;;2.67;;
10586;SDS011;5341;47.606;7.576;2023-03-17T12:53:50;4.70;;;2.63;;
10586;SDS011;5341;47.606;7.576;2023-03-17T12:56:19;3.58;;;2.90;;
10586;SDS011;5341;47.606;7.576;2023-03-17T12:58:50;3.08;;;2.30;;
10586;SDS011;5341;47.606;7.576;2023-03-17T13:01:22;5.35;;;2.80;;
10586;SDS011;5341;47.606;7.576;2023-03-17T13:04:02;4.97;;;2.50;;
10586;SDS011;5341;47.606;7.576;2023-03-17T13:06:40;6.78;;;2.90;;
10586;SDS011;5341;47.606;7.576;2023-03-17T13:15:19;3.95;;;2.50;;
10586;SDS011;5341;47.606;7.576;2023-03-17T13:21:17;5.10;;;3.38;;
10586;SDS011;5341;47.606;7.576;2023-03-17T13:23:47;5.18;;;3.33;;
10586;SDS011;5341;47.606;7.576;2023-03-17T13:29:22;4.57;;;3.75;;
10586;SDS011;5341;47.606;7.576;2023-03-17T13:32:05;6.63;;;4.13;;
10586;SDS011;5341;47.606;7.576;2023-03-17T13:34:54;5.20;;;3.80;;
10586;SDS011;5341;47.606;7.576;2023-03-17T13:40:48;4.50;;;2.95;;
10586;SDS011;5341;47.606;7.576;2023-03-17T13:43:41;3.83;;;2.97;;
10586;SDS011;5341;47.606;7.576;2023-03-17T13:46:25;4.20;;;2.97;;
10586;SDS011;5341;47.606;7.576;2023-03-17T13:49:00;4.20;;;2.47;;
10586;SDS011;5341;47.606;7.576;2023-03-17T13:51:31;3.58;;;2.30;;
10586;SDS011;5341;47.606;7.576;2023-03-17T13:59:56;4.57;;;2.47;;
10586;SDS011;5341;47.606;7.576;2023-03-17T14:02:30;3.13;;;2.20;;
10586;SDS011;5341;47.606;7.576;2023-03-17T14:05:01;3.22;;;2.22;;
10586;SDS011;5341;47.606;7.576;2023-03-17T14:07:41;3.42;;;2.25;;
10586;SDS011;5341;47.606;7.576;2023-03-17T14:10:16;4.70;;;2.40;;
10586;SDS011;5341;47.606;7.576;2023-03-17T14:12:49;3.97;;;2.03;;
10586;SDS011;5341;47.606;7.576;2023-03-17T14:15:25;2.83;;;2.20;;
10586;SDS011;5341;47.606;7.576;2023-03-17T14:18:01;5.88;;;2.38;;
10586;SDS011;5341;47.606;7.576;2023-03-17T14:20:36;2.92;;;1.90;;
10586;SDS011;5341;47.606;7.576;2023-03-17T14:23:03;4.20;;;2.00;;
10586;SDS011;5341;47.606;7.576;2023-03-17T14:25:33;3.08;;;2.00;;
10586;SDS011;5341;47.606;7.576;2023-03-17T14:28:03;2.88;;;2.00;;
10586;SDS011;5341;47.606;7.576;2023-03-17T14:30:33;3.72;;;2.20;;
10586;SDS011;5341;47.606;7.576;2023-03-17T14:33:02;2.45;;;1.80;;
10586;SDS011;5341;47.606;7.576;2023-03-17T14:35:33;3.78;;;2.30;;
10586;SDS011;5341;47.606;7.576;2023-03-17T14:38:07;4.65;;;2.20;;
10586;SDS011;5341;47.606;7.576;2023-03-17T14:40:44;6.70;;;2.22;;
10586;SDS011;5341;47.606;7.576;2023-03-17T14:43:12;4.60;;;2.03;;
10586;SDS011;5341;47.606;7.576;2023-03-17T14:45:47;2.78;;;2.25;;
10586;SDS011;5341;47.606;7.576;2023-03-17T14:48:16;2.50;;;1.80;;
10586;SDS011;5341;47.606;7.576;2023-03-17T14:50:49;5.28;;;2.10;;
10586;SDS011;5341;47.606;7.576;2023-03-17T14:53:18;3.15;;;2.00;;
10586;SDS011;5341;47.606;7.576;2023-03-17T14:55:49;3.22;;;1.60;;
10586;SDS011;5341;47.606;7.576;2023-03-17T14:58:20;2.17;;;1.50;;
10586;SDS011;5341;47.606;7.576;2023-03-17T15:00:53;4.50;;;2.10;;
10586;SDS011;5341;47.606;7.576;2023-03-17T15:03:23;3.35;;;2.10;;
10586;SDS011;5341;47.606;7.576;2023-03-17T15:06:02;2.85;;;2.00;;
10586;SDS011;5341;47.606;7.576;2023-03-17T15:08:37;5.18;;;1.75;;
10586;SDS011;5341;47.606;7.576;2023-03-17T15:11:13;2.75;;;1.73;;
10586;SDS011;5341;47.606;7.576;2023-03-17T15:13:44;2.72;;;1.65;;
10586;SDS011;5341;47.606;7.576;2023-03-17T15:16:18;1.98;;;1.60;;
10586;SDS011;5341;47.606;7.576;2023-03-17T15:18:49;2.78;;;1.60;;
10586;SDS011;5341;47.606;7.576;2023-03-17T15:21:26;2.13;;;1.70;;
10586;SDS011;5341;47.606;7.576;2023-03-17T15:24:02;3.08;;;1.75;;
10586;SDS011;5341;47.606;7.576;2023-03-17T15:26:34;1.83;;;1.58;;
10586;SDS011;5341;47.606;7.576;2023-03-17T15:29:06;5.32;;;1.90;;
10586;SDS011;5341;47.606;7.576;2023-03-17T15:31:34;3.80;;;1.70;;
10586;SDS011;5341;47.606;7.576;2023-03-17T15:34:02;2.65;;;1.50;;
10586;SDS011;5341;47.606;7.576;2023-03-17T15:36:29;2.72;;;1.88;;
10586;SDS011;5341;47.606;7.576;2023-03-17T15:38:56;2.53;;;1.70;;
10586;SDS011;5341;47.606;7.576;2023-03-17T15:41:23;3.03;;;1.92;;
10586;SDS011;5341;47.606;7.576;2023-03-17T15:43:52;3.55;;;1.88;;
10586;SDS011;5341;47.606;7.576;2023-03-17T15:46:22;3.08;;;1.73;;
10586;SDS011;5341;47.606;7.576;2023-03-17T15:48:51;2.63;;;1.80;;
10586;SDS011;5341;47.606;7.576;2023-03-17T15:51:21;2.72;;;1.92;;
10586;SDS011;5341;47.606;7.576;2023-03-17T15:53:49;3.30;;;2.17;;
10586;SDS011;5341;47.606;7.576;2023-03-17T15:56:18;4.82;;;1.85;;